createdAt,value
2022-10-13T00:00:04.594Z,11.19
2022-10-13T00:01:04.659Z,11.17
2022-10-13T00:02:04.577Z,11.15
2022-10-13T00:03:04.564Z,11.15
2022-10-13T00:04:04.554Z,11.14
2022-10-13T00:05:04.561Z,11.14
2022-10-13T00:06:04.536Z,11.14
2022-10-13T00:07:04.532Z,11.12
2022-10-13T00:08:04.542Z,11.11
2022-10-13T00:13:56.020Z,11.12
2022-10-13T00:14:57.001Z,11.10
2022-10-13T00:15:56.986Z,11.10
2022-10-13T00:16:57.021Z,11.08
2022-10-13T00:17:56.982Z,11.05
2022-10-13T00:18:56.962Z,11.08
2022-10-13T00:19:56.942Z,11.07
2022-10-13T00:20:56.939Z,11.05
2022-10-13T00:21:56.912Z,11.02
2022-10-13T00:22:56.915Z,11.00
2022-10-13T00:23:56.894Z,10.99
2022-10-13T00:24:56.901Z,10.96
2022-10-13T00:25:56.875Z,10.96
2022-10-13T00:26:56.891Z,10.96
2022-10-13T00:27:56.856Z,10.94
2022-10-13T00:29:02.931Z,10.93
2022-10-13T00:29:56.831Z,10.93
2022-10-13T00:30:56.831Z,10.92
2022-10-13T00:31:56.805Z,10.92
2022-10-13T00:32:56.797Z,10.90
2022-10-13T00:33:56.797Z,10.92
2022-10-13T00:34:56.778Z,10.89
2022-10-13T00:35:56.760Z,10.90
2022-10-13T00:36:56.774Z,10.87
2022-10-13T00:37:56.736Z,10.87
2022-10-13T00:38:56.728Z,10.82
2022-10-13T00:39:56.742Z,10.84
2022-10-13T00:40:56.708Z,10.79
2022-10-13T00:41:56.695Z,10.76
2022-10-13T00:42:56.728Z,10.75
2022-10-13T00:43:56.670Z,10.72
2022-10-13T00:44:56.671Z,10.72
2022-10-13T00:45:56.648Z,10.71
2022-10-13T00:46:56.644Z,10.69
2022-10-13T00:47:56.632Z,10.67
2022-10-13T00:48:56.633Z,10.67
2022-10-13T00:49:56.637Z,10.67
2022-10-13T00:50:56.603Z,10.61
2022-10-13T00:51:56.586Z,10.61
2022-10-13T00:52:56.592Z,10.60
2022-10-13T00:53:56.567Z,10.60
2022-10-13T00:54:56.574Z,10.57
2022-10-13T00:55:56.562Z,10.54
2022-10-13T00:56:56.538Z,10.54
2022-10-13T00:57:56.524Z,10.53
2022-10-13T00:58:56.511Z,10.48
2022-10-13T00:59:56.502Z,10.44
2022-10-13T01:00:56.583Z,10.44
2022-10-13T01:01:56.494Z,10.40
2022-10-13T01:02:56.468Z,10.41
2022-10-13T01:03:56.455Z,10.38
2022-10-13T01:04:56.487Z,10.37
2022-10-13T01:05:56.433Z,10.37
2022-10-13T01:06:56.439Z,10.37
2022-10-13T01:07:56.421Z,10.37
2022-10-13T01:08:56.400Z,10.37
2022-10-13T01:09:56.395Z,10.38
2022-10-13T05:01:11.733Z,11.10
2022-10-13T05:02:12.669Z,11.07
2022-10-13T05:03:12.669Z,11.07
2022-10-13T05:04:12.668Z,11.08
2022-10-13T05:05:12.646Z,11.10
2022-10-13T05:06:12.629Z,11.11
2022-10-13T05:07:17.888Z,11.08
2022-10-13T05:08:12.634Z,11.10
2022-10-13T05:09:12.632Z,11.08
2022-10-13T05:10:12.606Z,11.07
2022-10-13T05:11:12.582Z,11.05
2022-10-13T05:12:12.567Z,11.07
2022-10-13T05:13:12.555Z,11.10
2022-10-13T05:14:12.544Z,11.10
2022-10-13T05:15:12.552Z,11.10
2022-10-13T05:16:12.539Z,11.10
2022-10-13T05:17:12.531Z,11.10
2022-10-13T05:18:18.498Z,11.05
2022-10-13T05:19:12.521Z,11.05
2022-10-13T05:20:12.432Z,11.07
2022-10-13T05:21:12.409Z,11.07
2022-10-13T05:22:12.421Z,11.10
2022-10-13T05:23:12.399Z,11.11
2022-10-13T05:24:12.394Z,11.11
2022-10-13T05:25:12.377Z,11.12
2022-10-13T05:26:12.376Z,11.14
2022-10-13T05:27:12.357Z,11.11
2022-10-13T05:28:12.433Z,11.10
2022-10-13T05:29:12.327Z,11.10
2022-10-13T05:30:12.326Z,11.08
2022-10-13T05:31:12.310Z,11.08
2022-10-13T05:32:12.334Z,11.08
2022-10-13T05:33:12.276Z,11.11
2022-10-13T05:34:12.280Z,11.10
2022-10-13T05:35:12.284Z,11.10
2022-10-13T05:36:12.258Z,11.08
2022-10-13T05:37:12.241Z,11.08
2022-10-13T05:38:12.259Z,11.08
2022-10-13T05:39:12.222Z,11.11
2022-10-13T05:40:12.210Z,11.12
2022-10-13T05:41:12.199Z,11.14
2022-10-13T05:42:12.201Z,11.14
2022-10-13T05:43:12.184Z,11.14
2022-10-13T05:44:12.204Z,11.12
2022-10-13T05:45:12.150Z,11.14
2022-10-13T05:46:12.149Z,11.12
2022-10-13T05:47:12.144Z,11.12
2022-10-13T05:48:12.130Z,11.11
2022-10-13T05:49:12.109Z,11.11
2022-10-13T05:50:12.117Z,11.11
2022-10-13T05:51:12.099Z,11.11
2022-10-13T05:52:12.100Z,11.11
2022-10-13T05:53:12.066Z,11.11
2022-10-13T05:54:12.071Z,11.10
2022-10-13T05:55:12.048Z,11.11
2022-10-13T05:56:12.049Z,11.11
2022-10-13T05:57:12.061Z,11.10
2022-10-13T05:58:12.019Z,11.10
2022-10-13T05:59:12.008Z,11.10
2022-10-13T06:00:12.038Z,11.11
2022-10-13T06:01:11.983Z,11.10
2022-10-13T06:02:12.122Z,11.15
2022-10-13T06:03:11.958Z,11.14
2022-10-13T06:04:11.958Z,11.14
2022-10-13T06:05:11.945Z,11.15
2022-10-13T06:06:11.942Z,11.17
2022-10-13T06:07:11.943Z,11.15
2022-10-13T06:08:11.902Z,11.12
2022-10-13T06:09:11.902Z,11.17
2022-10-13T06:10:11.906Z,11.18
2022-10-13T06:11:11.888Z,11.18
2022-10-13T06:12:11.883Z,11.17
2022-10-13T06:13:11.862Z,11.19
2022-10-13T06:14:11.873Z,11.17
2022-10-13T06:15:11.855Z,11.18
2022-10-13T06:16:11.827Z,11.19
2022-10-13T06:17:11.825Z,11.18
2022-10-13T06:18:11.797Z,11.23
2022-10-13T06:19:11.791Z,11.25
2022-10-13T06:20:11.774Z,11.25
2022-10-13T06:21:11.774Z,11.23
2022-10-13T06:22:11.770Z,11.23
2022-10-13T06:23:11.757Z,11.25
2022-10-13T06:24:11.737Z,11.25
2022-10-13T06:25:11.728Z,11.23
2022-10-13T06:26:11.758Z,11.22
2022-10-13T06:27:11.700Z,11.22
2022-10-13T06:28:11.769Z,11.19
2022-10-13T06:29:11.776Z,11.22
2022-10-13T06:30:11.690Z,11.23
2022-10-13T06:31:11.660Z,11.22
2022-10-13T06:32:11.644Z,11.19
2022-10-13T06:33:11.658Z,11.17
2022-10-13T06:34:11.626Z,11.15
2022-10-13T06:35:11.615Z,11.14
2022-10-13T06:36:11.617Z,11.12
2022-10-13T06:37:11.588Z,11.08
2022-10-13T06:38:11.591Z,11.10
2022-10-13T06:39:11.606Z,11.10
2022-10-13T06:40:11.587Z,11.08
2022-10-13T06:41:11.545Z,11.05
2022-10-13T06:42:11.561Z,11.05
2022-10-13T06:43:11.539Z,11.04
2022-10-13T06:44:11.530Z,10.99
2022-10-13T06:45:11.506Z,10.97
2022-10-13T06:46:11.512Z,10.96
2022-10-13T06:47:11.484Z,10.93
2022-10-13T06:48:11.484Z,10.93
2022-10-13T06:49:11.467Z,10.93
2022-10-13T06:50:11.457Z,10.92
2022-10-13T06:51:11.443Z,10.90
2022-10-13T06:52:11.446Z,10.92
2022-10-13T06:53:11.412Z,10.89
2022-10-13T06:54:11.424Z,10.90
2022-10-13T06:55:11.405Z,10.89
2022-10-13T06:56:11.383Z,10.87
2022-10-13T06:57:11.396Z,10.84
2022-10-13T06:58:11.407Z,10.86
2022-10-13T06:59:11.371Z,10.87
2022-10-13T07:00:11.343Z,10.84
2022-10-13T07:01:11.358Z,10.84
2022-10-13T07:02:11.318Z,10.82
2022-10-13T07:03:11.318Z,10.79
2022-10-13T07:04:11.319Z,10.79
2022-10-13T07:05:11.289Z,10.81
2022-10-13T07:06:11.277Z,10.82
2022-10-13T07:07:11.264Z,10.86
2022-10-13T07:08:11.258Z,10.86
2022-10-13T07:09:11.268Z,10.87
2022-10-13T07:10:11.234Z,10.87
2022-10-13T07:11:15.618Z,10.87
2022-10-13T07:12:11.225Z,10.93
2022-10-13T07:13:11.227Z,10.96
2022-10-13T07:14:11.200Z,10.99
2022-10-13T07:15:11.192Z,11.00
2022-10-13T07:16:11.177Z,11.02
2022-10-13T07:17:11.159Z,11.05
2022-10-13T07:18:11.154Z,11.08
2022-10-13T07:19:11.228Z,11.07
2022-10-13T07:20:11.134Z,11.07
2022-10-13T07:21:11.152Z,11.05
2022-10-13T07:22:11.106Z,11.04
2022-10-13T07:23:11.093Z,11.02
2022-10-13T07:24:11.084Z,11.04
2022-10-13T07:25:11.101Z,11.04
2022-10-13T07:26:11.063Z,11.07
2022-10-13T07:27:11.079Z,11.10
2022-10-13T07:28:11.046Z,11.11
2022-10-13T07:29:11.036Z,11.12
2022-10-13T07:30:11.054Z,11.15
2022-10-13T07:31:11.014Z,11.19
2022-10-13T07:32:10.999Z,11.25
2022-10-13T07:33:11.001Z,11.26
2022-10-13T07:34:10.986Z,11.30
2022-10-13T07:35:10.973Z,11.35
2022-10-13T07:36:10.957Z,11.37
2022-10-13T07:37:10.946Z,11.43
2022-10-13T07:38:10.928Z,11.47
2022-10-13T07:39:10.939Z,11.51
2022-10-13T07:40:10.911Z,11.55
2022-10-13T07:41:10.909Z,11.59
2022-10-13T07:42:10.891Z,11.63
2022-10-13T07:43:10.882Z,11.68
2022-10-13T07:44:10.876Z,11.72
2022-10-13T07:45:10.864Z,11.73
2022-10-13T07:46:10.847Z,11.77
2022-10-13T07:47:10.830Z,11.80
2022-10-13T07:48:10.877Z,11.81
2022-10-13T07:49:13.711Z,11.84
2022-10-13T07:50:10.815Z,11.87
2022-10-13T07:51:10.785Z,11.90
2022-10-13T07:52:10.785Z,11.94
2022-10-13T07:53:10.781Z,11.94
2022-10-13T07:54:10.793Z,11.99
2022-10-13T07:55:10.749Z,12.00
2022-10-13T07:56:10.742Z,12.02
2022-10-13T07:57:10.724Z,12.03
2022-10-13T07:58:10.711Z,12.00
2022-10-13T07:59:10.710Z,12.02
2022-10-13T08:00:10.707Z,12.02
2022-10-13T08:01:10.694Z,12.02
2022-10-13T08:02:10.672Z,12.02
2022-10-13T08:03:10.668Z,12.04
2022-10-13T08:04:10.647Z,12.04
2022-10-13T08:05:10.651Z,12.04
2022-10-13T08:06:10.652Z,12.09
2022-10-13T08:07:10.611Z,12.12
2022-10-13T08:08:10.615Z,12.15
2022-10-13T08:09:10.601Z,12.17
2022-10-13T08:10:10.611Z,12.20
2022-10-13T08:11:12.362Z,12.22
2022-10-13T08:12:10.577Z,12.25
2022-10-13T08:13:10.579Z,12.27
2022-10-13T08:14:10.533Z,12.29
2022-10-13T08:15:10.528Z,12.32
2022-10-13T08:16:10.521Z,12.35
2022-10-13T08:17:10.503Z,12.37
2022-10-13T08:18:10.517Z,12.39
2022-10-13T08:19:10.494Z,12.42
2022-10-13T08:20:10.473Z,12.45
2022-10-13T08:21:39.068Z,12.47
2022-10-13T08:22:10.519Z,12.49
2022-10-13T08:23:10.478Z,12.54
2022-10-13T08:24:10.431Z,12.55
2022-10-13T08:25:10.416Z,12.61
2022-10-13T08:26:10.409Z,12.62
2022-10-13T08:27:10.405Z,12.65
2022-10-13T08:28:10.395Z,12.67
2022-10-13T08:29:21.378Z,12.68
2022-10-13T08:30:10.428Z,12.72
2022-10-13T08:31:10.499Z,12.72
2022-10-13T08:32:10.338Z,12.72
2022-10-13T08:33:10.332Z,12.76
2022-10-13T08:34:10.328Z,12.78
2022-10-13T08:35:10.355Z,12.78
2022-10-13T08:36:10.327Z,12.80
2022-10-13T08:37:10.298Z,12.82
2022-10-13T08:38:10.281Z,12.82
2022-10-13T08:39:10.268Z,12.85
2022-10-13T08:40:10.269Z,12.83
2022-10-13T08:41:10.260Z,12.87
2022-10-13T08:42:10.238Z,12.86
2022-10-13T08:43:10.237Z,12.87
2022-10-13T08:45:05.892Z,12.85
2022-10-13T08:46:10.203Z,12.87
2022-10-13T08:47:10.206Z,12.90
2022-10-13T08:48:10.167Z,12.90
2022-10-13T08:49:10.156Z,12.93
2022-10-13T08:50:10.155Z,12.97
2022-10-13T08:51:10.140Z,12.98
2022-10-13T08:52:10.131Z,12.98
2022-10-13T08:53:10.125Z,13.01
2022-10-13T08:54:10.108Z,13.03
2022-10-13T08:55:10.090Z,13.05
2022-10-13T08:56:10.080Z,13.09
2022-10-13T08:57:10.081Z,13.11
2022-10-13T08:58:10.056Z,13.12
2022-10-13T08:59:10.072Z,13.15
2022-10-13T09:00:10.032Z,13.16
2022-10-13T09:01:10.027Z,13.18
2022-10-13T09:02:10.078Z,13.18
2022-10-13T09:03:10.008Z,13.22
2022-10-13T09:04:09.998Z,13.20
2022-10-13T09:05:10.017Z,13.23
2022-10-13T09:06:09.973Z,13.25
2022-10-13T09:07:09.988Z,13.23
2022-10-13T09:08:09.975Z,13.25
2022-10-13T09:09:09.959Z,13.27
2022-10-13T09:10:09.939Z,13.28
2022-10-13T09:11:09.918Z,13.27
2022-10-13T09:12:09.919Z,13.28
2022-10-13T09:13:09.899Z,13.31
2022-10-13T09:14:09.887Z,13.31
2022-10-13T09:15:09.934Z,13.30
2022-10-13T09:16:09.886Z,13.28
2022-10-13T09:17:09.872Z,13.27
2022-10-13T09:18:09.860Z,13.25
2022-10-13T09:19:09.841Z,13.25
2022-10-13T09:20:09.814Z,13.27
2022-10-13T09:21:09.833Z,13.27
2022-10-13T09:22:09.798Z,13.27
2022-10-13T09:23:09.795Z,13.27
2022-10-13T09:24:09.775Z,13.28
2022-10-13T09:25:09.782Z,13.27
2022-10-13T09:26:09.760Z,13.27
2022-10-13T09:27:09.743Z,13.27
2022-10-13T09:28:09.739Z,13.27
2022-10-13T09:29:09.718Z,13.27
2022-10-13T09:30:09.720Z,13.28
2022-10-13T09:31:11.784Z,13.28
2022-10-13T09:32:09.694Z,13.30
2022-10-13T09:33:09.679Z,13.31
2022-10-13T09:34:09.682Z,13.33
2022-10-13T09:35:09.654Z,13.35
2022-10-13T09:36:09.640Z,13.35
2022-10-13T09:37:09.648Z,13.35
2022-10-13T09:38:09.616Z,13.35
2022-10-13T09:39:09.630Z,13.35
2022-10-13T09:40:09.607Z,13.35
2022-10-13T09:41:09.605Z,13.37
2022-10-13T09:42:09.592Z,13.38
2022-10-13T09:43:09.576Z,13.39
2022-10-13T09:44:10.513Z,13.41
2022-10-13T09:45:09.543Z,13.38
2022-10-13T09:46:09.532Z,13.41
2022-10-13T09:47:09.524Z,13.44
2022-10-13T09:48:09.526Z,13.42
2022-10-13T09:49:09.508Z,13.44
2022-10-13T09:50:09.516Z,13.44
2022-10-13T09:51:09.509Z,13.42
2022-10-13T09:52:09.479Z,13.44
2022-10-13T09:53:09.466Z,13.46
2022-10-13T09:54:09.450Z,13.46
2022-10-13T09:55:09.442Z,13.47
2022-10-13T09:56:09.527Z,13.47
2022-10-13T09:57:09.436Z,13.47
2022-10-13T09:58:09.406Z,13.50
2022-10-13T09:59:09.465Z,13.50
2022-10-13T10:00:09.379Z,13.52
2022-10-13T10:01:09.387Z,13.53
2022-10-13T10:02:09.354Z,13.54
2022-10-13T10:03:09.365Z,13.57
2022-10-13T10:04:09.376Z,13.59
2022-10-13T10:05:09.332Z,13.59
2022-10-13T10:07:09.346Z,13.59
2022-10-13T10:08:09.325Z,13.59
2022-10-13T10:09:09.338Z,13.60
2022-10-13T10:10:09.291Z,13.60
2022-10-13T10:11:09.311Z,13.60
2022-10-13T10:12:09.285Z,13.62
2022-10-13T10:13:09.273Z,13.62
2022-10-13T10:14:09.227Z,13.63
2022-10-13T10:15:09.216Z,13.67
2022-10-13T10:16:09.209Z,13.68
2022-10-13T10:17:09.201Z,13.68
2022-10-13T10:18:09.213Z,13.71
2022-10-13T10:19:09.193Z,13.70
2022-10-13T10:20:09.159Z,13.74
2022-10-13T10:21:09.149Z,13.75
2022-10-13T10:22:09.134Z,13.77
2022-10-13T10:23:09.271Z,13.79
2022-10-13T10:24:09.120Z,13.79
2022-10-13T10:25:09.112Z,13.79
2022-10-13T10:26:09.097Z,13.83
2022-10-13T10:27:09.152Z,13.79
2022-10-13T10:28:09.079Z,13.81
2022-10-13T10:29:09.090Z,13.81
2022-10-13T10:30:09.063Z,13.81
2022-10-13T10:31:09.056Z,13.81
2022-10-13T10:32:09.036Z,13.83
2022-10-13T10:33:09.022Z,13.83
2022-10-13T10:34:10.822Z,13.86
2022-10-13T10:35:09.031Z,13.87
2022-10-13T10:36:08.993Z,13.89
2022-10-13T10:37:08.980Z,13.89
2022-10-13T10:38:08.972Z,13.90
2022-10-13T10:39:08.974Z,13.92
2022-10-13T10:40:08.948Z,13.93
2022-10-13T10:41:08.979Z,13.96
2022-10-13T10:42:08.933Z,13.97
2022-10-13T10:43:08.913Z,14.00
2022-10-13T10:44:08.899Z,14.03
2022-10-13T10:45:08.905Z,14.03
2022-10-13T10:46:08.892Z,14.04
2022-10-13T10:47:08.869Z,14.05
2022-10-13T10:48:08.851Z,14.07
2022-10-13T10:49:08.851Z,14.08
2022-10-13T10:50:08.839Z,14.10
2022-10-13T10:51:08.852Z,14.14
2022-10-13T10:52:08.814Z,14.15
2022-10-13T10:53:08.808Z,14.17
2022-10-13T10:54:08.795Z,14.20
2022-10-13T10:55:08.786Z,14.17
2022-10-13T10:56:08.775Z,14.15
2022-10-13T10:57:08.790Z,14.14
2022-10-13T10:58:08.780Z,14.15
2022-10-13T10:59:08.754Z,14.15
2022-10-13T11:00:08.737Z,14.11
2022-10-13T11:01:08.797Z,14.12
2022-10-13T11:02:08.747Z,14.14
2022-10-13T11:03:08.741Z,14.14
2022-10-13T11:04:08.703Z,14.14
2022-10-13T11:05:08.671Z,14.17
2022-10-13T11:06:08.704Z,14.20
2022-10-13T11:07:08.652Z,14.20
2022-10-13T11:08:08.636Z,14.25
2022-10-13T11:09:08.679Z,14.28
2022-10-13T11:10:08.632Z,14.30
2022-10-13T11:11:08.642Z,14.32
2022-10-13T11:12:08.597Z,14.35
2022-10-13T11:13:08.590Z,14.37
2022-10-13T11:14:08.604Z,14.40
2022-10-13T11:15:08.577Z,14.40
2022-10-13T11:16:08.587Z,14.40
2022-10-13T11:17:08.538Z,14.40
2022-10-13T11:18:08.531Z,14.40
2022-10-13T11:19:14.561Z,14.41
2022-10-13T11:20:08.510Z,14.43
2022-10-13T11:21:08.552Z,14.45
2022-10-13T11:22:08.502Z,14.47
2022-10-13T11:23:08.497Z,14.47
2022-10-13T11:24:08.468Z,14.50
2022-10-13T11:25:08.485Z,14.53
2022-10-13T11:26:08.442Z,14.54
2022-10-13T11:27:08.488Z,14.58
2022-10-13T11:28:08.437Z,14.60
2022-10-13T11:29:08.444Z,14.63
2022-10-13T11:30:08.497Z,14.66
2022-10-13T11:31:08.390Z,14.69
2022-10-13T11:32:08.443Z,14.72
2022-10-13T11:33:08.370Z,14.70
2022-10-13T11:34:08.399Z,14.77
2022-10-13T11:35:08.368Z,14.77
2022-10-13T11:36:08.371Z,14.81
2022-10-13T11:37:08.387Z,14.82
2022-10-13T11:38:10.659Z,14.82
2022-10-13T11:39:08.346Z,14.82
2022-10-13T11:40:08.377Z,14.85
2022-10-13T11:41:08.276Z,14.86
2022-10-13T11:42:08.261Z,14.92
2022-10-13T11:43:08.558Z,14.91
2022-10-13T11:44:08.270Z,14.94
2022-10-13T11:45:08.271Z,14.97
2022-10-13T11:46:08.241Z,15.00
2022-10-13T11:47:08.215Z,15.04
2022-10-13T11:49:08.194Z,15.11
2022-10-13T11:50:08.270Z,15.19
2022-10-13T11:51:09.521Z,15.24
2022-10-13T11:52:08.173Z,15.28
2022-10-13T11:53:08.150Z,15.31
2022-10-13T11:54:08.151Z,15.36
2022-10-13T11:55:08.135Z,15.39
2022-10-13T11:56:08.127Z,15.42
2022-10-13T11:57:08.132Z,15.43
2022-10-13T11:58:08.108Z,15.46
2022-10-13T11:59:08.084Z,15.51
2022-10-13T12:00:08.069Z,15.52
2022-10-13T12:01:08.124Z,15.54
2022-10-13T12:02:08.059Z,15.57
2022-10-13T12:03:08.132Z,15.58
2022-10-13T12:04:08.031Z,15.59
2022-10-13T12:05:08.048Z,15.62
2022-10-13T12:06:08.005Z,15.65
2022-10-13T12:07:08.009Z,15.65
2022-10-13T12:08:08.034Z,15.67
2022-10-13T12:09:08.002Z,15.70
2022-10-13T12:10:07.989Z,15.72
2022-10-13T12:11:07.958Z,15.73
2022-10-13T12:12:07.934Z,15.72
2022-10-13T12:13:07.932Z,15.75
2022-10-13T12:14:07.924Z,15.73
2022-10-13T12:15:07.929Z,15.72
2022-10-13T12:16:08.141Z,15.70
2022-10-13T12:17:09.679Z,15.70
2022-10-13T12:18:07.907Z,15.70
2022-10-13T12:19:07.870Z,15.70
2022-10-13T12:20:07.855Z,15.72
2022-10-13T12:21:07.880Z,15.75
2022-10-13T12:22:07.836Z,15.75
2022-10-13T12:23:07.824Z,15.73
2022-10-13T12:24:07.810Z,15.73
2022-10-13T12:25:07.835Z,15.73
2022-10-13T12:26:07.805Z,15.73
2022-10-13T12:27:07.811Z,15.75
2022-10-13T12:28:07.767Z,15.73
2022-10-13T12:29:07.763Z,15.70
2022-10-13T12:30:07.744Z,15.70
2022-10-13T12:31:07.755Z,15.68
2022-10-13T12:32:07.725Z,15.65
2022-10-13T12:33:07.717Z,15.67
2022-10-13T12:34:07.711Z,15.67
2022-10-13T12:35:07.697Z,15.70
2022-10-13T12:36:07.686Z,15.70
2022-10-13T12:37:07.689Z,15.70
2022-10-13T12:38:07.667Z,15.68
2022-10-13T12:39:07.658Z,15.72
2022-10-13T12:40:07.639Z,15.68
2022-10-13T12:41:07.618Z,15.72
2022-10-13T12:42:07.613Z,15.73
2022-10-13T12:43:07.629Z,15.73
2022-10-13T12:44:07.628Z,15.72
2022-10-13T12:45:07.638Z,15.70
2022-10-13T12:46:07.573Z,15.72
2022-10-13T12:47:07.575Z,15.73
2022-10-13T12:48:07.551Z,15.73
2022-10-13T12:49:07.618Z,15.72
2022-10-13T12:50:07.526Z,15.72
2022-10-13T12:51:07.527Z,15.72
2022-10-13T12:52:07.505Z,15.73
2022-10-13T12:53:07.489Z,15.73
2022-10-13T12:54:07.484Z,15.75
2022-10-13T12:55:07.484Z,15.73
2022-10-13T12:56:07.465Z,15.73
2022-10-13T12:57:07.463Z,15.73
2022-10-13T12:58:07.446Z,15.73
2022-10-13T12:59:07.423Z,15.75
2022-10-13T13:00:07.422Z,15.76
2022-10-13T13:01:07.559Z,15.75
2022-10-13T13:02:07.392Z,15.75
2022-10-13T13:03:07.416Z,15.75
2022-10-13T13:04:07.381Z,15.75
2022-10-13T13:05:07.379Z,15.73
2022-10-13T13:06:07.352Z,15.70
2022-10-13T13:07:07.354Z,15.68
2022-10-13T13:08:07.331Z,15.70
2022-10-13T13:09:07.320Z,15.70
2022-10-13T13:10:07.313Z,15.70
2022-10-13T13:11:07.287Z,15.68
2022-10-13T13:12:07.304Z,15.70
2022-10-13T13:13:07.290Z,15.70
2022-10-13T13:14:07.271Z,15.70
2022-10-13T13:15:07.251Z,15.68
2022-10-13T13:16:07.247Z,15.72
2022-10-13T13:17:07.229Z,15.68
2022-10-13T13:18:07.234Z,15.68
2022-10-13T13:19:07.223Z,15.67
2022-10-13T13:20:07.198Z,15.65
2022-10-13T13:21:07.202Z,15.65
2022-10-13T13:22:07.182Z,15.68
2022-10-13T13:23:07.221Z,15.68
2022-10-13T13:24:16.260Z,15.70
2022-10-13T13:25:07.167Z,15.70
2022-10-13T13:26:07.143Z,15.68
2022-10-13T13:27:07.118Z,15.67
2022-10-13T13:28:07.117Z,15.68
2022-10-13T13:29:07.138Z,15.65
2022-10-13T13:30:07.093Z,15.68
2022-10-13T13:31:07.134Z,15.72
2022-10-13T13:32:07.081Z,15.72
2022-10-13T13:33:07.134Z,15.75
2022-10-13T13:34:07.121Z,15.75
2022-10-13T13:35:07.040Z,15.73
2022-10-13T13:36:07.031Z,15.76
2022-10-13T13:37:07.006Z,15.79
2022-10-13T13:38:07.008Z,15.76
2022-10-13T13:39:06.992Z,15.77
2022-10-13T13:40:07.001Z,15.79
2022-10-13T13:41:06.970Z,15.82
2022-10-13T13:42:06.959Z,15.83
2022-10-13T13:43:06.943Z,15.80
2022-10-13T13:44:06.942Z,15.82
2022-10-13T13:45:06.934Z,15.86
2022-10-13T13:46:06.939Z,15.84
2022-10-13T13:47:06.901Z,15.86
2022-10-13T13:48:06.908Z,15.91
2022-10-13T13:49:06.883Z,15.88
2022-10-13T13:50:06.880Z,15.91
2022-10-13T13:51:06.859Z,15.92
2022-10-13T13:52:06.881Z,15.90
2022-10-13T13:53:06.865Z,15.92
2022-10-13T13:54:06.849Z,15.94
2022-10-13T13:55:06.892Z,15.92
2022-10-13T13:56:06.818Z,15.91
2022-10-13T13:57:06.801Z,15.92
2022-10-13T13:58:06.819Z,15.92
2022-10-13T13:59:06.803Z,15.92
2022-10-13T14:00:06.768Z,15.92
2022-10-13T14:01:06.751Z,15.92
2022-10-13T14:02:06.809Z,15.91
2022-10-13T14:03:06.746Z,15.90
2022-10-13T14:04:06.725Z,15.86
2022-10-13T14:05:06.709Z,15.90
2022-10-13T14:06:06.705Z,15.88
2022-10-13T14:07:06.693Z,15.88
2022-10-13T14:08:06.697Z,15.90
2022-10-13T14:09:06.673Z,15.86
2022-10-13T14:10:06.664Z,15.83
2022-10-13T14:11:06.646Z,15.83
2022-10-13T14:12:06.639Z,15.82
2022-10-13T14:13:06.623Z,15.83
2022-10-13T14:14:06.684Z,15.80
2022-10-13T14:15:06.614Z,15.83
2022-10-13T14:16:06.598Z,15.82
2022-10-13T14:17:06.580Z,15.82
2022-10-13T14:18:06.573Z,15.83
2022-10-13T14:19:06.568Z,15.82
2022-10-13T14:20:06.571Z,15.84
2022-10-13T14:21:06.535Z,15.84
2022-10-13T14:22:09.499Z,15.84
2022-10-13T14:23:06.544Z,15.83
2022-10-13T14:24:06.510Z,15.83
2022-10-13T14:25:06.491Z,15.80
2022-10-13T14:26:06.487Z,15.80
2022-10-13T14:27:06.468Z,15.77
2022-10-13T14:28:06.454Z,15.80
2022-10-13T14:29:06.479Z,15.77
2022-10-13T14:30:06.453Z,15.77
2022-10-13T14:31:06.420Z,15.76
2022-10-13T14:32:06.419Z,15.77
2022-10-13T14:33:06.399Z,15.77
2022-10-13T14:34:06.397Z,15.75
2022-10-13T14:35:06.381Z,15.77
2022-10-13T14:36:06.388Z,15.76
2022-10-13T14:37:06.362Z,15.79
2022-10-13T14:38:06.348Z,15.77
2022-10-13T14:39:06.339Z,15.79
2022-10-13T14:40:06.336Z,15.77
2022-10-13T14:41:06.330Z,15.77
2022-10-13T14:42:06.324Z,15.76
2022-10-13T14:43:06.295Z,15.79
2022-10-13T14:44:06.287Z,15.79
2022-10-13T14:45:06.266Z,15.79
2022-10-13T14:46:06.274Z,15.77
2022-10-13T14:47:06.274Z,15.76
2022-10-13T14:48:06.244Z,15.80
2022-10-13T14:49:06.226Z,15.79
2022-10-13T14:50:06.233Z,15.79
2022-10-13T14:51:06.205Z,15.79
2022-10-13T14:52:06.211Z,15.80
2022-10-13T14:53:06.199Z,15.79
2022-10-13T14:54:06.183Z,15.80
2022-10-13T14:55:06.163Z,15.82
2022-10-13T14:56:06.151Z,15.80
2022-10-13T14:57:06.179Z,15.80
2022-10-13T14:58:06.147Z,15.80
2022-10-13T14:59:06.126Z,15.80
2022-10-13T15:00:06.121Z,15.79
2022-10-13T15:01:06.092Z,15.77
2022-10-13T15:02:06.105Z,15.77
2022-10-13T15:03:06.072Z,15.79
2022-10-13T15:04:06.083Z,15.73
2022-10-13T15:05:06.064Z,15.75
2022-10-13T15:06:06.055Z,15.75
2022-10-13T15:07:06.027Z,15.73
2022-10-13T15:08:06.022Z,15.72
2022-10-13T15:09:06.056Z,15.73
2022-10-13T15:10:06.623Z,15.73
2022-10-13T15:11:05.996Z,15.73
2022-10-13T15:12:05.995Z,15.73
2022-10-13T15:13:05.969Z,15.73
2022-10-13T15:14:05.961Z,15.73
2022-10-13T15:15:05.977Z,15.75
2022-10-13T15:16:05.974Z,15.76
2022-10-13T15:17:05.923Z,15.76
2022-10-13T15:18:05.926Z,15.76
2022-10-13T15:19:05.919Z,15.77
2022-10-13T15:20:05.896Z,15.79
2022-10-13T15:21:05.880Z,15.77
2022-10-13T15:22:05.873Z,15.77
2022-10-13T15:23:05.859Z,15.79
2022-10-13T15:24:05.860Z,15.77
2022-10-13T15:25:05.847Z,15.77
2022-10-13T15:26:05.834Z,15.77
2022-10-13T15:27:05.816Z,15.80
2022-10-13T15:28:05.807Z,15.80
2022-10-13T15:29:05.810Z,15.77
2022-10-13T15:30:05.797Z,15.77
2022-10-13T15:31:05.767Z,15.75
2022-10-13T15:32:05.770Z,15.73
2022-10-13T15:33:05.753Z,15.73
2022-10-13T15:34:05.783Z,15.73
2022-10-13T15:35:05.783Z,15.68
2022-10-13T15:36:05.714Z,15.68
2022-10-13T15:37:05.699Z,15.68
2022-10-13T15:38:05.711Z,15.68
2022-10-13T15:39:05.688Z,15.65
2022-10-13T15:40:05.673Z,15.64
2022-10-13T15:41:05.673Z,15.62
2022-10-13T15:42:05.668Z,15.62
2022-10-13T15:43:05.645Z,15.62
2022-10-13T15:44:05.642Z,15.62
2022-10-13T15:45:10.489Z,15.58
2022-10-13T15:46:05.649Z,15.57
2022-10-13T15:47:08.225Z,15.58
2022-10-13T15:48:05.585Z,15.54
2022-10-13T15:49:05.574Z,15.55
2022-10-13T15:50:05.572Z,15.52
2022-10-13T15:51:05.551Z,15.52
2022-10-13T15:52:05.565Z,15.52
2022-10-13T15:53:05.617Z,15.51
2022-10-13T15:54:05.551Z,15.51
2022-10-13T15:55:05.509Z,15.47
2022-10-13T15:56:05.508Z,15.46
2022-10-13T15:57:05.525Z,15.47
2022-10-13T15:58:07.834Z,15.46
2022-10-13T15:59:05.470Z,15.44
2022-10-13T16:00:05.455Z,15.44
2022-10-13T16:01:05.644Z,15.44
2022-10-13T16:02:05.440Z,15.44
2022-10-13T16:03:05.448Z,15.42
2022-10-13T16:04:05.414Z,15.42
2022-10-13T16:05:05.419Z,15.42
2022-10-13T16:06:05.408Z,15.39
2022-10-13T16:07:05.381Z,15.39
2022-10-13T16:08:05.366Z,15.39
2022-10-13T16:09:05.360Z,15.36
2022-10-13T16:10:05.387Z,15.36
2022-10-13T16:11:05.357Z,15.37
2022-10-13T16:12:05.324Z,15.36
2022-10-13T16:13:05.308Z,15.36
2022-10-13T16:14:05.309Z,15.35
2022-10-13T16:15:05.298Z,15.35
2022-10-13T16:16:05.324Z,15.33
2022-10-13T16:17:05.311Z,15.33
2022-10-13T16:18:05.255Z,15.29
2022-10-13T16:19:05.266Z,15.28
2022-10-13T16:20:05.263Z,15.28
2022-10-13T16:21:05.225Z,15.27
2022-10-13T16:22:05.339Z,15.25
2022-10-13T16:23:05.201Z,15.25
2022-10-13T16:24:05.188Z,15.25
2022-10-13T16:25:05.213Z,15.24
2022-10-13T16:26:05.161Z,15.24
2022-10-13T16:27:05.162Z,15.21
2022-10-13T16:28:05.159Z,15.21
2022-10-13T16:29:05.137Z,15.21
2022-10-13T16:30:05.128Z,15.19
2022-10-13T16:31:05.127Z,15.18
2022-10-13T16:32:05.117Z,15.18
2022-10-13T16:33:05.099Z,15.18
2022-10-13T16:34:05.088Z,15.17
2022-10-13T16:35:05.075Z,15.15
2022-10-13T16:36:05.078Z,15.17
2022-10-13T16:37:05.061Z,15.15
2022-10-13T16:38:05.047Z,15.18
2022-10-13T16:39:05.025Z,15.14
2022-10-13T16:40:05.022Z,15.11
2022-10-13T16:41:05.006Z,15.15
2022-10-13T16:42:05.030Z,15.11
2022-10-13T16:43:05.019Z,15.11
2022-10-13T16:44:04.982Z,15.10
2022-10-13T16:45:05.026Z,15.10
2022-10-13T16:46:04.986Z,15.10
2022-10-13T16:47:05.026Z,15.09
2022-10-13T16:48:04.992Z,15.09
2022-10-13T16:49:04.957Z,15.07
2022-10-13T16:50:04.916Z,15.06